Time;durP1;ratioP1;P1;durP2;ratioP2;P2;SDS_P1;SDS_P2;PMS_P1;PMS_P2;Temp;Humidity;BMP_temperature;BMP_pressure;BME280_temperature;BME280_humidity;BME280_pressure;Samples;Min_cycle;Max_cycle;Signal;HPM_P1;HPM_P2
2022/09/12 00:00:43;;;;;;;8.30;5.15;;;;;;;13.14;87.03;98441.28;1618792;88;25475;-58
2022/09/12 00:03:09;;;;;;;7.00;5.10;;;;;;;13.17;86.91;98454.37;1618362;88;25746;-59
2022/09/12 00:05:46;;;;;;;6.90;4.28;;;;;;;13.18;86.93;98448.27;1618802;88;26874;-59
2022/09/12 00:08:13;;;;;;;7.10;4.65;;;;;;;13.18;87.34;98440.02;1619039;88;25641;-58
2022/09/12 00:10:41;;;;;;;9.40;4.92;;;;;;;13.29;87.23;98454.98;1618854;88;27386;-58
2022/09/12 00:13:09;;;;;;;8.58;5.12;;;;;;;13.32;86.91;98455.47;1618649;88;25467;-58
2022/09/12 00:15:41;;;;;;;8.90;5.20;;;;;;;13.32;86.91;98455.47;1618787;88;25757;-60
2022/09/12 00:18:11;;;;;;;7.65;5.15;;;;;;;13.28;86.54;98449.27;1618590;88;26027;-59
2022/09/12 00:20:46;;;;;;;9.00;5.53;;;;;;;13.25;86.62;98458.75;1618861;88;25460;-58
2022/09/12 00:23:13;;;;;;;6.97;5.10;;;;;;;13.16;87.21;98448.61;1601927;88;27508;-58
2022/09/12 00:25:47;;;;;;;21.97;5.03;;;;;;;13.16;87.21;98448.61;1618832;88;25759;-58
2022/09/12 00:28:16;;;;;;;8.98;5.33;;;;;;;13.27;87.36;98456.48;1602313;88;25700;-59
2022/09/12 00:30:44;;;;;;;6.00;5.37;;;;;;;13.34;87.63;98455.92;1618705;88;27011;-59
2022/09/12 00:33:11;;;;;;;7.20;5.37;;;;;;;13.38;87.45;98460.41;1618848;88;25483;-58
2022/09/12 00:35:47;;;;;;;10.25;5.67;;;;;;;13.39;87.17;98459.85;1619069;88;27453;-58
2022/09/12 00:38:15;;;;;;;10.55;6.30;;;;;;;13.32;87.23;98452.13;1618674;88;25471;-59
2022/09/12 00:40:42;;;;;;;7.78;5.65;;;;;;;13.40;87.38;98456.77;1618786;88;25664;-59
2022/09/12 00:43:36;;;;;;;9.48;6.60;;;;;;;13.40;87.20;98451.81;1618786;88;26103;-59
2022/09/12 00:46:31;;;;;;;7.97;6.12;;;;;;;13.38;87.34;98454.91;1616517;88;25587;-58
2022/09/12 00:49:06;;;;;;;9.60;6.65;;;;;;;13.29;87.35;98454.17;1618860;88;27442;-58
2022/09/12 00:51:35;;;;;;;8.38;6.60;;;;;;;13.16;87.49;98445.86;1618805;88;25443;-59
2022/09/12 00:54:06;;;;;;;9.90;7.50;;;;;;;13.16;87.49;98445.86;1618861;88;25534;-59
2022/09/12 00:56:35;;;;;;;10.23;7.12;;;;;;;13.22;87.68;98449.23;1617863;88;25951;-59
2022/09/12 00:59:09;;;;;;;9.23;6.90;;;;;;;13.18;87.72;98443.59;1618579;88;25447;-59
2022/09/12 01:01:36;;;;;;;10.70;7.42;;;;;;;13.19;87.68;98448.53;1618789;88;27655;-59
2022/09/12 01:04:03;;;;;;;11.05;7.75;;;;;;;13.03;87.48;98438.13;1618455;88;25435;-59
2022/09/12 01:06:36;;;;;;;11.15;8.50;;;;;;;13.07;87.64;98448.46;1618565;88;25444;-59
2022/09/12 01:09:04;;;;;;;10.13;7.37;;;;;;;13.07;87.64;98448.46;1618676;88;26147;-59
2022/09/12 01:11:38;;;;;;;11.65;7.78;;;;;;;13.02;87.67;98446.72;1618933;88;25480;-58
2022/09/12 01:14:06;;;;;;;10.65;7.72;;;;;;;12.97;87.98;98447.72;1618765;88;27217;-58
2022/09/12 01:16:36;;;;;;;11.40;8.73;;;;;;;12.92;88.62;98450.66;1618682;88;25693;-58
2022/09/12 01:19:08;;;;;;;13.03;8.55;;;;;;;12.92;88.62;98450.66;1618598;88;25528;-59
2022/09/12 01:21:48;;;;;;;17.70;8.35;;;;;;;12.86;88.80;98454.19;1618370;88;26089;-59
2022/09/12 01:24:58;;;;;;;12.63;8.73;;;;;;;12.80;88.88;98453.58;1618851;88;25617;-58
2022/09/12 01:28:17;;;;;;;16.25;9.05;;;;;;;12.85;89.29;98455.33;1618481;88;28457;-58
2022/09/12 01:30:54;;;;;;;13.25;9.40;;;;;;;12.88;90.51;98460.72;1618551;88;25744;-58
2022/09/12 01:33:35;;;;;;;14.30;9.80;;;;;;;12.88;90.51;98460.72;1617796;88;25673;-59
2022/09/12 01:36:28;;;;;;;13.50;10.15;;;;;;;12.90;90.46;98457.08;1618863;88;26807;-57
2022/09/12 01:39:05;;;;;;;14.75;9.28;;;;;;;12.90;90.58;98455.70;1618705;88;25446;-58
2022/09/12 01:41:42;;;;;;;14.43;9.58;;;;;;;12.84;90.70;98445.45;1617919;88;28174;-58
2022/09/12 01:44:19;;;;;;;16.15;9.35;;;;;;;12.90;91.00;98458.45;1618699;88;25901;-58
2022/09/12 01:47:15;;;;;;;11.63;8.33;;;;;;;12.95;91.28;98451.95;1619079;88;25636;-58
2022/09/12 01:50:04;;;;;;;13.58;9.30;;;;;;;12.95;91.38;98460.20;1618892;88;28363;-58
2022/09/12 01:53:03;;;;;;;11.28;8.53;;;;;;;12.98;91.15;98463.08;1618663;88;25447;-58
2022/09/12 01:55:37;;;;;;;12.73;9.05;;;;;;;12.99;91.09;98457.83;1618580;88;27449;-58
2022/09/12 01:58:20;;;;;;;15.10;8.60;;;;;;;13.05;91.02;98448.80;1618612;88;25501;-58
2022/09/12 02:01:09;;;;;;;11.40;7.90;;;;;;;13.02;90.95;98452.22;1618760;88;25684;-58
2022/09/12 02:03:53;;;;;;;14.33;8.65;;;;;;;12.98;91.33;98456.79;1618462;88;27025;-58
2022/09/12 02:06:30;;;;;;;12.25;7.85;;;;;;;12.93;91.15;98459.95;1618557;88;25663;-58
2022/09/12 02:09:14;;;;;;;11.30;7.67;;;;;;;12.92;90.87;98465.78;1617678;88;27417;-58
2022/09/12 02:11:43;;;;;;;12.82;8.13;;;;;;;12.92;90.57;98465.22;1618150;88;25512;-57
2022/09/12 02:14:15;;;;;;;10.45;7.85;;;;;;;12.91;90.54;98462.25;1618648;88;25464;-58
2022/09/12 02:16:52;;;;;;;11.60;7.95;;;;;;;12.90;90.83;98456.48;1618723;88;26045;-57
2022/09/12 02:19:23;;;;;;;10.35;8.03;;;;;;;12.89;90.22;98462.33;1618700;88;25453;-58
2022/09/12 02:21:55;;;;;;;10.10;7.65;;;;;;;12.89;90.22;98462.33;1619036;88;27440;-58
2022/09/12 02:24:30;;;;;;;12.15;8.23;;;;;;;12.89;90.22;98468.64;1618532;88;25641;-59
2022/09/12 02:27:04;;;;;;;12.58;8.85;;;;;;;12.86;89.86;98469.31;1618637;88;25435;-58
2022/09/12 02:29:30;;;;;;;10.95;7.65;;;;;;;12.86;90.38;98467.93;1618732;88;26202;-58
2022/09/12 02:32:07;;;;;;;9.53;7.03;;;;;;;12.88;89.87;98467.04;1618943;88;25608;-58
2022/09/12 02:34:45;;;;;;;10.58;7.72;;;;;;;12.88;89.87;98467.04;1618255;88;27504;-57
2022/09/12 02:37:37;;;;;;;11.78;7.10;;;;;;;12.91;90.49;98467.75;1618540;88;25673;-58
2022/09/12 02:40:07;;;;;;;15.08;7.70;;;;;;;12.89;89.88;98463.70;1618462;88;25701;-57
2022/09/12 02:42:33;;;;;;;10.85;7.55;;;;;;;12.87;89.92;98468.16;1618420;87;25692;-58
2022/09/12 02:44:59;;;;;;;11.25;6.83;;;;;;;12.86;89.93;98464.37;1618765;88;25665;-58
2022/09/12 02:47:45;;;;;;;10.18;6.78;;;;;;;12.87;89.90;98459.91;1618769;88;27513;-58
2022/09/12 02:50:12;;;;;;;10.93;6.95;;;;;;;12.87;89.60;98457.16;1618161;88;25677;-58
2022/09/12 02:52:39;;;;;;;10.38;6.83;;;;;;;12.86;89.50;98462.44;1618631;88;25523;-58
2022/09/12 02:55:10;;;;;;;10.38;6.47;;;;;;;12.83;89.24;98460.91;1618612;88;26141;-58
2022/09/12 02:57:35;;;;;;;10.30;7.07;;;;;;;12.76;89.41;98463.64;1618718;87;25645;-58
2022/09/12 03:00:04;;;;;;;9.83;6.37;;;;;;;12.73;89.46;98459.38;1618781;88;27484;-58
2022/09/12 03:03:18;;;;;;;9.05;6.55;;;;;;;12.69;89.37;98458.44;1618569;88;25704;-58
2022/09/12 03:06:05;;;;;;;10.05;7.33;;;;;;;12.48;89.49;98455.88;1618531;88;25732;-57
2022/09/12 03:08:57;;;;;;;8.83;6.80;;;;;;;12.48;89.49;98455.88;1618358;88;26006;-57
2022/09/12 03:11:48;;;;;;;9.43;6.72;;;;;;;12.51;89.61;98462.08;1618552;88;25677;-58
2022/09/12 03:15:00;;;;;;;11.33;7.12;;;;;;;12.50;89.56;98461.86;1618874;88;27377;-58
2022/09/12 03:18:09;;;;;;;9.70;6.90;;;;;;;12.48;89.71;98467.42;1618445;87;25848;-58
2022/09/12 03:21:04;;;;;;;11.12;6.50;;;;;;;12.49;89.53;98471.80;1618323;88;25515;-58
2022/09/12 03:23:36;;;;;;;9.15;6.40;;;;;;;12.49;89.53;98471.80;1618544;88;26849;-58
2022/09/12 03:26:29;;;;;;;11.73;7.00;;;;;;;12.47;90.00;98463.08;1618742;88;25518;-57
2022/09/12 03:28:55;;;;;;;10.72;7.03;;;;;;;12.55;89.96;98471.83;1618874;88;27640;-58
2022/09/12 03:31:22;;;;;;;9.78;6.58;;;;;;;12.60;90.03;98464.77;1618609;88;25632;-58
2022/09/12 03:33:48;;;;;;;11.75;6.75;;;;;;;12.61;89.86;98462.25;1618413;88;25697;-58
2022/09/12 03:36:25;;;;;;;13.10;7.00;;;;;;;12.63;89.87;98459.98;1618892;88;26036;-58
2022/09/12 03:38:52;;;;;;;13.85;7.08;;;;;;;12.62;89.71;98463.88;1618726;88;25472;-58
2022/09/12 03:41:18;;;;;;;11.55;7.95;;;;;;;12.59;90.22;98468.67;1618724;88;27447;-58
2022/09/12 03:43:44;;;;;;;10.28;6.62;;;;;;;12.58;90.20;98464.88;1618624;88;25656;-58
2022/09/12 03:46:12;;;;;;;12.30;7.12;;;;;;;12.58;90.20;98464.88;1618643;88;25656;-58
2022/09/12 03:48:40;;;;;;;13.03;7.45;;;;;;;12.64;90.30;98476.71;1618302;88;26266;-58
2022/09/12 03:51:09;;;;;;;12.73;7.08;;;;;;;12.65;90.25;98479.72;1618722;88;25709;-58
2022/09/12 03:53:36;;;;;;;10.20;7.28;;;;;;;12.68;90.42;98480.98;1618804;88;27651;-58
2022/09/12 03:56:09;;;;;;;10.13;7.67;;;;;;;12.69;90.37;98481.80;1618740;88;25657;-58
2022/09/12 03:58:36;;;;;;;10.18;7.53;;;;;;;12.69;90.37;98472.18;1618912;87;25503;-58
2022/09/12 04:01:12;;;;;;;10.08;6.83;;;;;;;12.72;90.42;98487.42;1618757;88;26015;-58
2022/09/12 04:03:41;;;;;;;9.45;6.72;;;;;;;12.76;90.52;98486.20;1618719;88;25493;-58
2022/09/12 04:06:10;;;;;;;10.53;6.87;;;;;;;12.78;90.21;98486.09;1618719;88;28285;-59
2022/09/12 04:08:38;;;;;;;11.83;7.00;;;;;;;12.79;90.20;98484.98;1619042;88;25874;-58
2022/09/12 04:11:13;;;;;;;11.22;6.97;;;;;;;12.79;90.29;98487.73;1618792;88;25431;-58
2022/09/12 04:13:41;;;;;;;11.25;7.00;;;;;;;12.85;90.25;98488.33;1618773;88;26641;-58
2022/09/12 04:16:09;;;;;;;9.25;6.90;;;;;;;12.86;90.00;98482.24;1618685;88;25693;-58
2022/09/12 04:18:37;;;;;;;8.40;6.65;;;;;;;12.86;90.00;98482.24;1618688;88;27424;-58
2022/09/12 04:21:06;;;;;;;10.15;6.40;;;;;;;12.93;89.83;98488.83;1618838;88;25475;-58
2022/09/12 04:23:32;;;;;;;9.23;6.65;;;;;;;12.90;89.69;98483.20;1618746;88;25689;-58
2022/09/12 04:26:01;;;;;;;9.70;6.33;;;;;;;12.85;89.77;98482.83;1618662;88;26074;-58
2022/09/12 04:28:29;;;;;;;11.78;5.97;;;;;;;12.85;89.77;98482.83;1618759;88;25662;-58
2022/09/12 04:30:57;;;;;;;7.97;5.65;;;;;;;12.94;89.47;98492.39;1618921;88;27376;-58
2022/09/12 04:33:23;;;;;;;9.18;6.15;;;;;;;12.92;89.15;98488.60;1618311;88;25648;-58
2022/09/12 04:35:49;;;;;;;10.10;6.47;;;;;;;12.91;89.20;98493.88;1618823;88;25652;-58
2022/09/12 04:38:15;;;;;;;10.53;6.47;;;;;;;12.92;89.18;98495.48;1618413;88;26031;-58
2022/09/12 04:40:41;;;;;;;9.20;6.35;;;;;;;12.92;89.04;98494.10;1618781;88;25447;-58
2022/09/12 04:43:08;;;;;;;9.48;6.85;;;;;;;12.94;89.23;98491.02;1618762;88;27392;-58
2022/09/12 04:45:34;;;;;;;10.03;5.85;;;;;;;13.03;88.93;98496.45;1618678;88;25685;-58
2022/09/12 04:48:01;;;;;;;7.72;5.65;;;;;;;13.05;89.15;98497.75;1618828;88;25680;-58
2022/09/12 04:50:27;;;;;;;9.03;5.80;;;;;;;13.00;88.49;98501.25;1618718;88;26957;-59
2022/09/12 04:52:54;;;;;;;8.93;5.72;;;;;;;13.00;88.49;98501.25;1618501;88;25491;-58
2022/09/12 04:55:24;;;;;;;8.50;5.87;;;;;;;12.96;88.34;98508.56;1618756;88;28204;-58
2022/09/12 04:57:50;;;;;;;7.33;4.95;;;;;;;12.92;88.17;98509.23;1618484;87;25617;-58
2022/09/12 05:00:16;;;;;;;8.13;5.30;;;;;;;12.97;88.36;98508.80;1619040;88;25626;-58
2022/09/12 05:02:43;;;;;;;6.42;4.90;;;;;;;13.01;88.53;98513.88;1618378;88;25976;-59
2022/09/12 05:05:10;;;;;;;8.25;5.30;;;;;;;13.01;88.53;98513.88;1621602;88;25677;-58
2022/09/12 05:07:36;;;;;;;9.50;5.33;;;;;;;13.05;88.21;98514.82;1622553;88;27550;-58
2022/09/12 05:10:04;;;;;;;7.95;5.17;;;;;;;13.06;88.03;98515.05;1622769;88;25629;-58
2022/09/12 05:12:31;;;;;;;8.30;4.97;;;;;;;13.12;88.10;98523.90;1622926;88;25506;-58
2022/09/12 05:14:57;;;;;;;6.55;4.85;;;;;;;13.11;88.02;98519.55;1622629;88;26092;-58
2022/09/12 05:17:23;;;;;;;6.58;4.60;;;;;;;13.06;87.21;98523.30;1622922;88;25502;-58
2022/09/12 05:19:50;;;;;;;9.95;5.58;;;;;;;13.08;87.64;98527.91;1622961;88;27471;-58
2022/09/12 05:22:16;;;;;;;7.35;5.30;;;;;;;13.08;87.64;98527.91;1622745;88;25660;-58
2022/09/12 05:24:43;;;;;;;7.20;4.97;;;;;;;13.16;88.52;98533.91;1622915;88;25712;-58
2022/09/12 05:27:10;;;;;;;8.78;5.20;;;;;;;13.32;87.67;98531.16;1622647;88;26714;-58
2022/09/12 05:29:36;;;;;;;6.25;4.60;;;;;;;13.32;87.67;98531.16;1619829;88;25605;-58
2022/09/12 05:32:02;;;;;;;7.05;5.03;;;;;;;13.41;87.60;98538.74;1622493;88;28208;-59
2022/09/12 05:34:28;;;;;;;6.20;4.45;;;;;;;13.46;86.74;98544.63;1622681;88;25523;-59
2022/09/12 05:36:55;;;;;;;6.80;4.22;;;;;;;13.46;86.74;98544.63;1623079;88;25657;-58
2022/09/12 05:39:21;;;;;;;6.60;4.20;;;;;;;13.41;86.04;98555.26;1622858;88;26198;-58
2022/09/12 05:41:47;;;;;;;7.50;4.40;;;;;;;13.41;86.15;98557.45;1622929;88;25671;-58
2022/09/12 05:44:14;;;;;;;7.22;4.20;;;;;;;13.45;85.77;98559.53;1622775;88;27822;-58
2022/09/12 05:46:44;;;;;;;5.58;3.95;;;;;;;13.40;85.92;98559.98;1622496;88;27115;-58
2022/09/12 05:49:13;;;;;;;7.67;3.93;;;;;;;13.45;85.91;98558.97;1623121;88;26221;-59
2022/09/12 05:51:44;;;;;;;8.08;3.55;;;;;;;13.48;85.31;98557.48;1622524;88;26099;-58
2022/09/12 05:54:21;;;;;;;6.58;3.58;;;;;;;13.50;85.41;98556.62;1622873;88;25758;-58
2022/09/12 05:56:56;;;;;;;6.58;3.90;;;;;;;13.53;85.45;98558.70;1622554;88;27370;-58
2022/09/12 05:59:27;;;;;;;5.35;3.67;;;;;;;13.52;84.34;98555.70;1622697;88;25535;-58
2022/09/12 06:01:52;;;;;;;;;;;;;;;13.51;84.14;98556.84;1625140;87;25658;-58
2022/09/12 06:04:19;;;;;;;6.20;3.65;;;;;;;13.47;84.13;98555.88;1621803;88;25495;-58
2022/09/12 06:06:47;;;;;;;7.20;3.92;;;;;;;13.45;84.79;98549.90;1618422;88;25534;-59
2022/09/12 06:09:16;;;;;;;5.28;3.65;;;;;;;13.45;84.79;98549.90;1618451;88;27607;-58
2022/09/12 06:11:43;;;;;;;4.92;3.92;;;;;;;13.58;84.13;98552.19;1618578;88;25742;-59
2022/09/12 06:14:13;;;;;;;8.80;3.27;;;;;;;13.58;84.33;98556.32;1618682;88;25596;-58
2022/09/12 06:16:40;;;;;;;4.85;3.52;;;;;;;13.54;83.18;98555.61;1618630;88;26206;-58
2022/09/12 06:19:16;;;;;;;4.47;3.30;;;;;;;13.56;83.85;98553.91;1618346;88;25668;-58
2022/09/12 06:21:44;;;;;;;6.90;3.25;;;;;;;13.58;84.00;98561.23;1618432;88;27435;-58
2022/09/12 06:24:11;;;;;;;4.92;3.83;;;;;;;13.61;83.52;98567.45;1618641;88;25719;-59
2022/09/12 06:26:38;;;;;;;4.28;3.25;;;;;;;13.53;83.78;98548.48;1618556;88;25696;-58
2022/09/12 06:29:04;;;;;;;6.45;3.55;;;;;;;13.64;83.66;98562.64;1618436;88;26119;-59
2022/09/12 06:31:35;;;;;;;5.83;3.20;;;;;;;13.67;83.42;98566.66;1614791;88;25663;-58
2022/09/12 06:34:06;;;;;;;5.78;3.52;;;;;;;13.66;82.90;98577.45;1618516;88;27523;-58
2022/09/12 06:36:35;;;;;;;;;;;;;;;13.75;83.06;98575.44;1621025;88;25694;-58
2022/09/12 06:39:06;;;;;;;12.23;3.47;;;;;;;13.80;82.76;98569.73;1618713;88;25455;-58
2022/09/12 06:41:33;;;;;;;6.47;3.22;;;;;;;13.92;82.37;98562.64;1618591;88;26035;-59
2022/09/12 06:44:01;;;;;;;3.90;2.92;;;;;;;13.92;82.37;98562.64;1618838;88;25450;-58
2022/09/12 06:46:29;;;;;;;4.22;3.10;;;;;;;13.97;81.76;98572.09;1618717;88;27388;-58
2022/09/12 06:48:58;;;;;;;5.25;2.90;;;;;;;14.04;80.55;98577.84;1618641;88;25640;-58
2022/09/12 06:51:25;;;;;;;5.58;3.62;;;;;;;14.07;80.43;98568.09;1618686;88;25725;-58
2022/09/12 06:53:56;;;;;;;4.67;3.37;;;;;;;14.12;81.32;98569.27;1618604;88;26052;-58
2022/09/12 06:56:27;;;;;;;4.08;3.17;;;;;;;14.26;80.76;98573.66;1618672;88;25725;-58
2022/09/12 06:58:57;;;;;;;3.40;2.92;;;;;;;14.35;78.85;98573.56;1618758;88;27580;-59
2022/09/12 07:01:29;;;;;;;4.37;2.85;;;;;;;14.30;80.29;98578.72;1618665;88;25705;-58
2022/09/12 07:03:59;;;;;;;3.70;2.75;;;;;;;14.36;79.64;98575.19;1618669;88;25888;-58
2022/09/12 07:06:34;;;;;;;8.68;3.33;;;;;;;14.48;79.00;98573.81;1582317;88;26075;-62
2022/09/12 07:09:00;;;;;;;5.00;2.85;;;;;;;14.74;76.93;98569.14;1579666;90;25534;-61
2022/09/12 07:11:31;;;;;;;4.25;2.85;;;;;;;14.74;76.93;98569.14;1580050;90;26887;-58
2022/09/12 07:13:59;;;;;;;;;;;;;;;14.81;78.05;98579.05;1582340;90;25737;-58
2022/09/12 07:16:26;;;;;;;5.25;2.72;;;;;;;14.88;76.17;98586.18;1580044;90;25598;-58
2022/09/12 07:18:59;;;;;;;4.97;2.75;;;;;;;15.06;77.10;98587.34;1579877;90;26037;-58
2022/09/12 07:21:27;;;;;;;5.17;3.02;;;;;;;15.11;76.08;98588.47;1579971;90;25512;-58
2022/09/12 07:24:04;;;;;;;4.00;2.40;;;;;;;15.30;76.74;98589.84;1580367;90;27519;-58
2022/09/12 07:26:32;;;;;;;5.60;2.50;;;;;;;15.45;75.39;98591.67;1579981;90;26118;-58
2022/09/12 07:28:58;;;;;;;3.67;2.22;;;;;;;15.52;74.46;98596.80;1580010;90;25595;-58
2022/09/12 07:31:28;;;;;;;3.90;2.50;;;;;;;15.44;74.80;98600.52;1579798;90;26117;-58
2022/09/12 07:33:55;;;;;;;3.75;2.72;;;;;;;15.47;74.47;98599.02;1577400;90;25525;-60
2022/09/12 07:36:24;;;;;;;3.55;2.77;;;;;;;15.51;74.69;98598.53;1580202;90;27392;-58
2022/09/12 07:38:55;;;;;;;3.98;3.08;;;;;;;15.50;72.15;98605.22;1580062;90;25515;-58
2022/09/12 07:41:26;;;;;;;4.10;2.42;;;;;;;15.42;73.05;98598.67;1580255;90;25643;-58
2022/09/12 07:43:58;;;;;;;2.87;2.30;;;;;;;15.56;71.62;98599.69;1580369;90;25667;-58
2022/09/12 07:46:26;;;;;;;4.95;2.52;;;;;;;15.83;73.39;98615.85;1580206;90;25441;-58
2022/09/12 07:48:57;;;;;;;2.35;1.80;;;;;;;15.90;71.75;98611.34;1580042;90;27914;-58
2022/09/12 07:51:25;;;;;;;4.80;2.50;;;;;;;15.85;71.64;98612.14;1580104;90;25641;-59
2022/09/12 07:53:53;;;;;;;3.52;2.37;;;;;;;15.92;72.21;98618.68;1580273;90;25452;-58
2022/09/12 07:56:20;;;;;;;3.25;2.00;;;;;;;16.10;72.71;98612.90;1580072;90;26152;-58
2022/09/12 07:58:48;;;;;;;2.33;1.77;;;;;;;16.15;69.86;98610.46;1580164;90;25701;-58
2022/09/12 08:01:18;;;;;;;3.60;2.00;;;;;;;16.15;69.26;98604.34;1580175;90;27306;-58
2022/09/12 08:03:48;;;;;;;3.67;2.02;;;;;;;16.07;68.49;98614.17;1579810;90;25674;-58
2022/09/12 08:06:23;;;;;;;3.17;1.95;;;;;;;16.04;68.69;98618.45;1608186;88;25785;-59
2022/09/12 08:08:47;;;;;;;2.47;2.00;;;;;;;15.97;69.32;98618.26;1618197;88;25807;-59
2022/09/12 08:11:17;;;;;;;4.85;2.00;;;;;;;15.87;69.75;98607.08;1618533;88;25511;-58
2022/09/12 08:13:44;;;;;;;4.80;2.30;;;;;;;15.97;69.60;98611.34;1618924;88;27566;-58
2022/09/12 08:16:20;;;;;;;3.58;1.72;;;;;;;16.01;69.52;98609.48;1618374;88;25700;-58
2022/09/12 08:18:48;;;;;;;3.52;1.95;;;;;;;16.12;69.69;98615.31;1618883;88;25451;-59
2022/09/12 08:21:24;;;;;;;2.83;2.10;;;;;;;16.14;68.86;98615.75;1618657;88;26089;-58
2022/09/12 08:23:55;;;;;;;3.90;2.10;;;;;;;16.21;69.69;98623.45;1618563;88;25685;-58
2022/09/12 08:26:22;;;;;;;4.58;2.00;;;;;;;16.34;69.68;98608.39;1618934;88;27409;-57
2022/09/12 08:28:50;;;;;;;2.30;1.87;;;;;;;16.58;68.49;98611.38;1618392;88;25609;-57
2022/09/12 08:31:19;;;;;;;3.00;2.10;;;;;;;16.79;67.06;98609.17;1618720;88;25298;-58
2022/09/12 08:33:46;;;;;;;4.33;2.33;;;;;;;16.85;67.96;98608.31;1618895;88;26004;-58
2022/09/12 08:36:17;;;;;;;3.10;1.90;;;;;;;17.11;66.18;98612.52;1618709;88;25439;-58
2022/09/12 08:38:45;;;;;;;3.12;2.00;;;;;;;17.16;64.57;98625.29;1618705;88;27437;-58
2022/09/12 08:41:33;;;;;;;3.80;1.62;;;;;;;17.04;67.18;98616.48;1618541;88;25721;-58
2022/09/12 08:44:26;;;;;;;3.83;2.00;;;;;;;17.01;65.27;98614.42;1618757;88;25495;-57
2022/09/12 08:47:20;;;;;;;2.83;1.72;;;;;;;17.04;67.11;98620.63;1618429;88;26493;-59
2022/09/12 08:50:10;;;;;;;3.37;1.67;;;;;;;17.02;66.25;98616.84;1618768;88;25529;-59
2022/09/12 08:53:04;;;;;;;2.77;1.90;;;;;;;17.15;67.29;98613.97;1618197;88;25881;-58
2022/09/12 08:55:37;;;;;;;2.98;1.77;;;;;;;17.16;66.95;98616.38;1618309;88;26409;-58
2022/09/12 08:58:12;;;;;;;2.60;1.80;;;;;;;17.14;63.93;98613.19;1618806;88;25515;-57
2022/09/12 09:00:47;;;;;;;3.58;1.80;;;;;;;17.25;65.56;98607.09;1618549;88;26064;-58
2022/09/12 09:03:25;;;;;;;2.85;1.70;;;;;;;17.34;63.07;98611.05;1618724;88;25538;-58
2022/09/12 09:06:09;;;;;;;3.58;1.52;;;;;;;17.47;64.29;98609.75;1618543;88;27459;-58
2022/09/12 09:08:58;;;;;;;2.77;1.80;;;;;;;17.50;62.79;98611.80;1618261;88;25680;-58
2022/09/12 09:12:02;;;;;;;2.10;1.65;;;;;;;17.64;62.83;98610.50;1616749;88;25439;-58
2022/09/12 09:14:49;;;;;;;1.90;1.60;;;;;;;17.54;62.51;98604.97;1612362;88;26470;-57
2022/09/12 09:17:41;;;;;;;6.42;1.80;;;;;;;17.60;62.01;98611.83;1612117;89;25658;-57
2022/09/12 09:20:43;;;;;;;2.70;1.60;;;;;;;17.62;63.57;98613.64;1612310;88;27325;-58
2022/09/12 09:23:26;;;;;;;3.58;1.50;;;;;;;17.66;61.57;98609.57;1612362;88;25908;-58
2022/09/12 09:26:16;;;;;;;1.65;1.25;;;;;;;17.88;60.69;98609.42;1608879;89;26207;-58
2022/09/12 09:28:57;;;;;;;2.00;1.55;;;;;;;18.63;58.07;98604.34;1612267;89;26468;-59
2022/09/12 09:31:27;;;;;;;1.85;1.35;;;;;;;19.03;57.34;98602.20;1612234;89;25657;-58
2022/09/12 09:33:54;;;;;;;;;;;;;;;19.66;57.77;98606.11;1614603;89;27825;-58
2022/09/12 09:36:50;;;;;;;2.87;1.40;;;;;;;20.10;54.58;98608.08;1612217;89;25678;-58
2022/09/12 09:39:54;;;;;;;3.40;1.60;;;;;;;20.06;55.88;98602.45;1612083;89;25736;-58
2022/09/12 09:42:47;;;;;;;2.40;1.20;;;;;;;19.98;56.04;98604.12;1583635;90;26047;-58
2022/09/12 09:45:18;;;;;;;3.00;1.42;;;;;;;19.29;52.85;98605.41;1582956;90;25786;-58
2022/09/12 09:47:50;;;;;;;2.00;1.60;;;;;;;19.59;55.83;98600.45;1583871;90;26817;-58
2022/09/12 09:50:18;;;;;;;3.20;1.25;;;;;;;20.38;55.78;98594.24;1583971;90;25666;-58
2022/09/12 09:52:46;;;;;;;2.65;1.55;;;;;;;20.96;49.39;98592.61;1583633;90;25675;-59
2022/09/12 09:55:24;;;;;;;2.40;1.50;;;;;;;21.22;50.42;98595.56;1584003;90;26072;-59
2022/09/12 09:57:52;;;;;;;2.95;1.40;;;;;;;21.08;51.96;98597.07;1583783;90;25554;-59
2022/09/12 10:00:34;;;;;;;4.83;1.45;;;;;;;20.90;51.97;98595.52;1583544;90;27640;-61
2022/09/12 10:03:12;;;;;;;2.55;1.40;;;;;;;21.17;51.64;98596.73;1581554;90;25492;-58
2022/09/12 10:05:55;;;;;;;1.90;1.20;;;;;;;21.62;49.10;98593.80;1584743;90;25740;-58
2022/09/12 10:08:30;;;;;;;3.30;1.20;;;;;;;22.21;49.56;98589.86;1599205;89;26098;-59
2022/09/12 10:11:07;;;;;;;3.22;1.40;;;;;;;22.66;44.90;98595.98;1598651;89;25687;-59
2022/09/12 10:13:53;;;;;;;1.67;1.30;;;;;;;22.93;46.14;98585.80;1599661;89;28174;-59
2022/09/12 10:16:30;;;;;;;2.83;1.10;;;;;;;23.37;44.81;98587.14;1614206;86;25836;-59
2022/09/12 10:18:59;;;;;;;1.65;1.10;;;;;;;23.72;43.13;98590.27;1656848;86;25726;-58
2022/09/12 10:21:49;;;;;;;2.33;1.30;;;;;;;23.48;43.97;98590.52;1648281;86;25913;-58
2022/09/12 10:24:26;;;;;;;2.15;1.30;;;;;;;23.78;45.28;98587.84;1631001;87;25712;-57
2022/09/12 10:27:13;;;;;;;2.65;1.30;;;;;;;24.15;44.43;98586.48;1631072;87;27880;-58
2022/09/12 10:29:55;;;;;;;1.85;1.15;;;;;;;24.16;39.59;98585.29;1639526;86;25895;-57
2022/09/12 10:32:33;;;;;;;2.10;1.25;;;;;;;23.54;38.58;98588.90;1657197;86;25805;-58
2022/09/12 10:35:20;;;;;;;2.77;1.25;;;;;;;22.72;42.69;98587.19;1657084;86;27057;-58
2022/09/12 10:38:03;;;;;;;1.22;1.10;;;;;;;22.47;42.38;98585.94;1657399;86;25758;-59
2022/09/12 10:40:38;;;;;;;1.60;1.30;;;;;;;21.95;42.46;98581.42;1657464;86;27513;-59
2022/09/12 10:43:18;;;;;;;2.35;1.17;;;;;;;21.41;42.70;98589.72;1656664;85;25898;-58
2022/09/12 10:45:45;;;;;;;1.52;1.20;;;;;;;21.13;43.55;98588.34;1655783;86;25768;-58
2022/09/12 10:48:32;;;;;;;2.22;1.35;;;;;;;20.97;45.08;98590.02;1637457;86;25994;-59
2022/09/12 10:51:00;;;;;;;2.58;1.30;;;;;;;20.92;46.36;98583.41;1630338;88;25893;-59
2022/09/12 10:53:45;;;;;;;1.98;1.55;;;;;;;20.90;47.64;98591.34;1630555;88;27495;-58
2022/09/12 10:56:31;;;;;;;4.08;1.30;;;;;;;20.88;47.36;98593.70;1630039;87;26108;-58
2022/09/12 10:59:35;;;;;;;2.40;1.40;;;;;;;20.92;47.89;98584.22;1632131;87;25762;-58
2022/09/12 11:02:13;;;;;;;1.82;1.10;;;;;;;21.09;47.54;98593.09;1632152;87;26160;-58
2022/09/12 11:05:09;;;;;;;2.70;1.35;;;;;;;21.31;46.99;98592.66;1633406;87;25480;-58
2022/09/12 11:07:44;;;;;;;1.90;1.40;;;;;;;21.49;46.96;98588.36;1617701;87;27489;-58
2022/09/12 11:10:37;;;;;;;1.80;1.40;;;;;;;21.74;47.18;98584.90;1586357;90;25642;-58
2022/09/12 11:13:15;;;;;;;3.72;1.47;;;;;;;21.90;46.84;98592.37;1586335;89;25532;-58
2022/09/12 11:15:56;;;;;;;3.00;1.85;;;;;;;21.96;47.28;98586.42;1586363;90;26157;-58
2022/09/12 11:18:55;;;;;;;3.55;1.50;;;;;;;21.74;46.56;98587.11;1582873;89;26527;-59
2022/09/12 11:21:58;;;;;;;2.47;1.22;;;;;;;21.33;46.84;98588.09;1586125;90;28389;-58
2022/09/12 11:24:30;;;;;;;1.62;1.30;;;;;;;21.05;47.21;98592.27;1585289;90;25939;-58
2022/09/12 11:27:19;;;;;;;1.92;1.40;;;;;;;20.82;48.68;98587.69;1586101;90;25673;-60
2022/09/12 11:30:00;;;;;;;4.47;1.30;;;;;;;20.72;48.26;98593.98;1491285;95;26726;-59
2022/09/12 11:33:04;;;;;;;2.02;1.37;;;;;;;20.81;49.42;98588.86;1491510;96;25647;-59
2022/09/12 11:35:37;;;;;;;3.58;1.22;;;;;;;21.00;49.72;98594.02;1491068;96;26771;-58
2022/09/12 11:38:28;;;;;;;3.95;1.35;;;;;;;21.17;48.86;98588.38;1491266;96;25759;-59
2022/09/12 11:41:21;;;;;;;2.87;1.52;;;;;;;21.05;49.16;98593.66;1491293;96;25676;-58
2022/09/12 11:44:01;;;;;;;1.77;1.50;;;;;;;20.86;50.34;98591.87;1491076;96;26240;-58
2022/09/12 11:46:38;;;;;;;2.15;1.30;;;;;;;21.33;51.08;98597.84;1491425;96;25509;-58
2022/09/12 11:49:21;;;;;;;2.58;1.50;;;;;;;21.91;47.43;98596.75;1491303;96;27532;-59
2022/09/12 11:52:19;;;;;;;1.92;1.37;;;;;;;22.10;48.02;98599.01;1490744;96;25753;-58
2022/09/12 11:55:06;;;;;;;2.35;2.10;;;;;;;21.92;46.09;98593.37;1491310;96;25682;-58
2022/09/12 11:57:43;;;;;;;2.12;1.57;;;;;;;21.70;49.23;98596.03;1491007;96;26457;-58
2022/09/12 12:00:39;;;;;;;3.10;1.52;;;;;;;21.63;48.28;98606.57;1491342;96;25834;-58
2022/09/12 12:03:38;;;;;;;1.80;1.30;;;;;;;21.87;48.07;98605.70;1491137;96;27501;-59
2022/09/12 12:06:18;;;;;;;2.65;1.60;;;;;;;21.91;47.77;98612.09;1505499;88;27145;-59
2022/09/12 12:08:46;;;;;;;3.45;1.70;;;;;;;22.34;48.01;98607.05;1588560;90;25525;-59